Time;durP1;ratioP1;P1;durP2;ratioP2;P2;SDS_P1;SDS_P2;PMS_P1;PMS_P2;Temp;Humidity;BMP_temperature;BMP_pressure;BME280_temperature;BME280_humidity;BME280_pressure;Samples;Min_cycle;Max_cycle;Signal;HPM_P1;HPM_P2
2021/07/08 00:00:48;;;;;;;9.83;7.50;;;;;15.50;101366.00;;;;10449962;28;20522;-77
2021/07/08 00:05:50;;;;;;;13.57;7.33;;;;;15.50;101364.00;;;;10465287;28;20231;-77
2021/07/08 00:10:55;;;;;;;9.47;7.30;;;;;15.70;101369.00;;;;10482063;28;20530;-77
2021/07/08 00:15:58;;;;;;;9.47;8.17;;;;;15.80;101368.00;;;;10465891;28;20536;-77
2021/07/08 00:21:00;;;;;;;12.57;7.67;;;;;15.80;101359.00;;;;10481874;28;20244;-76
2021/07/08 00:26:03;;;;;;;11.73;6.93;;;;;15.80;101347.00;;;;10481682;28;20188;-76
2021/07/08 00:31:05;;;;;;;7.60;6.80;;;;;15.80;101355.00;;;;10464692;28;20634;-77
2021/07/08 00:36:07;;;;;;;10.80;6.87;;;;;15.60;101337.00;;;;10465085;28;20224;-77
2021/07/08 00:41:09;;;;;;;11.13;6.97;;;;;15.40;101345.00;;;;10432691;28;20201;-77
2021/07/08 00:46:11;;;;;;;9.03;7.20;;;;;15.30;101351.00;;;;10488195;28;20201;-77
2021/07/08 00:51:13;;;;;;;10.83;7.03;;;;;15.30;101362.00;;;;10467488;28;20542;-77
2021/07/08 00:56:16;;;;;;;9.53;7.40;;;;;15.20;101378.00;;;;10516303;28;20189;-77
2021/07/08 01:01:35;;;;;;;11.60;7.23;;;;;15.00;101369.00;;;;10495167;28;20183;-78
2021/07/08 01:06:44;;;;;;;10.37;8.00;;;;;14.90;101371.00;;;;10534501;28;20223;-79
2021/07/08 01:11:47;;;;;;;12.13;8.73;;;;;14.90;101364.00;;;;10552471;28;20185;-79
2021/07/08 01:16:49;;;;;;;13.93;7.63;;;;;14.90;101350.00;;;;10516339;28;20189;-79
2021/07/08 01:21:51;;;;;;;11.00;7.03;;;;;14.80;101363.00;;;;10458079;28;20206;-78
2021/07/08 01:26:53;;;;;;;9.80;7.17;;;;;14.70;101361.00;;;;10457896;28;20216;-78
2021/07/08 01:31:56;;;;;;;9.47;7.10;;;;;14.60;101352.00;;;;10453856;28;20247;-78
2021/07/08 01:36:58;;;;;;;8.63;7.20;;;;;14.50;101363.00;;;;10489427;28;20621;-78
2021/07/08 01:42:00;;;;;;;12.03;8.23;;;;;14.50;101359.00;;;;10477309;28;20209;-78
2021/07/08 01:47:03;;;;;;;9.23;7.37;;;;;14.50;101356.00;;;;10473843;28;20266;-79
2021/07/08 01:52:05;;;;;;;12.13;9.00;;;;;14.40;101361.00;;;;10484989;28;20292;-79
2021/07/08 01:57:08;;;;;;;12.43;8.83;;;;;14.50;101369.00;;;;10483600;28;20656;-78
2021/07/08 02:02:09;;;;;;;16.80;9.17;;;;;14.70;101371.00;;;;10480142;28;20205;-79
2021/07/08 02:07:12;;;;;;;15.20;9.47;;;;;14.80;101362.00;;;;10469165;28;20636;-78
2021/07/08 02:12:14;;;;;;;14.90;9.10;;;;;14.90;101375.00;;;;10471787;28;20211;-78
2021/07/08 02:17:16;;;;;;;13.33;9.93;;;;;14.90;101365.00;;;;10471163;28;20688;-79
2021/07/08 02:22:18;;;;;;;12.10;8.93;;;;;14.90;101361.00;;;;10453359;28;20219;-78
2021/07/08 02:27:19;;;;;;;14.13;8.73;;;;;14.90;101366.00;;;;10502816;28;20206;-78
2021/07/08 02:32:21;;;;;;;17.07;9.60;;;;;14.90;101362.00;;;;10483656;28;20228;-78
2021/07/08 02:37:23;;;;;;;11.77;9.60;;;;;15.00;101357.00;;;;10506339;28;20246;-79
2021/07/08 02:42:25;;;;;;;20.47;11.10;;;;;15.00;101365.00;;;;10456419;28;20959;-78
2021/07/08 02:47:27;;;;;;;14.97;9.73;;;;;15.10;101368.00;;;;10483052;28;20220;-79
2021/07/08 02:52:31;;;;;;;15.97;9.13;;;;;15.10;101377.00;;;;10500026;28;20556;-78
2021/07/08 02:57:33;;;;;;;14.87;9.67;;;;;15.10;101380.00;;;;10457093;28;20189;-78
2021/07/08 03:02:35;;;;;;;10.60;9.27;;;;;15.20;101386.00;;;;10487159;28;20193;-78
2021/07/08 03:07:38;;;;;;;15.50;10.03;;;;;15.20;101388.00;;;;10472435;28;20240;-78
2021/07/08 03:12:40;;;;;;;11.13;8.67;;;;;15.30;101383.00;;;;10492297;28;20639;-78
2021/07/08 03:17:43;;;;;;;11.97;8.50;;;;;15.20;101385.00;;;;10463294;28;20194;-78
2021/07/08 03:22:45;;;;;;;12.97;8.87;;;;;15.20;101391.00;;;;10504082;28;20202;-79
2021/07/08 03:27:49;;;;;;;9.33;8.33;;;;;15.10;101390.00;;;;10452264;28;20241;-78
2021/07/08 03:32:52;;;;;;;14.83;8.93;;;;;15.00;101381.00;;;;10456009;28;20251;-79
2021/07/08 03:37:58;;;;;;;14.93;8.90;;;;;15.00;101386.00;;;;10475627;28;20831;-78
2021/07/08 03:43:01;;;;;;;16.90;9.77;;;;;15.00;101390.00;;;;10480671;28;20656;-79
2021/07/08 03:48:04;;;;;;;15.33;9.40;;;;;15.00;101398.00;;;;10502047;28;20217;-78
2021/07/08 03:53:06;;;;;;;16.30;9.13;;;;;15.10;101400.00;;;;10501109;28;20194;-78
2021/07/08 03:58:08;;;;;;;13.50;9.63;;;;;15.10;101400.00;;;;10487741;28;20547;-79
2021/07/08 04:03:13;;;;;;;16.47;9.50;;;;;15.10;101396.00;;;;10471617;28;20235;-78
2021/07/08 04:08:15;;;;;;;14.10;9.40;;;;;15.00;101398.00;;;;10476013;28;20304;-78
2021/07/08 04:13:19;;;;;;;13.73;9.20;;;;;15.00;101391.00;;;;10489104;28;20648;-78
2021/07/08 04:18:21;;;;;;;19.13;10.60;;;;;15.10;101407.00;;;;10492816;28;20196;-78
2021/07/08 04:23:23;;;;;;;14.07;9.63;;;;;15.30;101423.00;;;;10493198;28;20201;-78
2021/07/08 04:28:25;;;;;;;14.60;10.80;;;;;15.50;101424.00;;;;10494259;28;20912;-78
2021/07/08 04:33:27;;;;;;;19.47;10.87;;;;;15.70;101439.00;;;;10464274;28;20312;-78
2021/07/08 04:38:29;;;;;;;21.10;13.87;;;;;16.10;101445.00;;;;10522420;28;20180;-79
2021/07/08 04:43:30;;;;;;;21.23;12.57;;;;;16.40;101459.00;;;;10494600;28;20219;-79
2021/07/08 04:48:32;;;;;;;18.60;9.93;;;;;16.70;101458.00;;;;10497823;28;20303;-78
2021/07/08 04:53:35;;;;;;;12.03;9.30;;;;;17.10;101470.00;;;;10501028;28;20614;-78
2021/07/08 04:58:37;;;;;;;14.33;9.03;;;;;17.30;101473.00;;;;10540199;28;20189;-79
2021/07/08 05:03:39;;;;;;;16.00;8.83;;;;;17.40;101479.00;;;;10479827;28;20614;-79
2021/07/08 05:08:41;;;;;;;13.83;8.83;;;;;17.50;101481.00;;;;10491309;28;20259;-78
2021/07/08 05:13:43;;;;;;;14.10;9.23;;;;;17.70;101478.00;;;;10474467;28;20193;-78
2021/07/08 05:18:45;;;;;;;21.63;8.30;;;;;17.70;101473.00;;;;10492843;28;20197;-78
2021/07/08 05:23:47;;;;;;;14.40;7.50;;;;;17.80;101494.00;;;;10512425;28;20193;-79
2021/07/08 05:28:49;;;;;;;16.42;7.05;;;;;18.30;101500.00;;;;10482585;28;20910;-78
2021/07/08 05:33:50;;;;;;;19.35;8.13;;;;;19.00;101506.00;;;;10459068;28;20213;-78
2021/07/08 05:38:52;;;;;;;11.82;8.18;;;;;19.70;101517.00;;;;10500094;28;20243;-78
2021/07/08 05:43:54;;;;;;;14.82;7.25;;;;;20.30;101522.00;;;;10488958;28;20209;-78
2021/07/08 05:48:56;;;;;;;11.55;7.88;;;;;21.00;101527.00;;;;10496490;28;20215;-78
2021/07/08 05:53:59;;;;;;;11.93;6.82;;;;;21.10;101530.00;;;;10477536;28;20652;-78
2021/07/08 05:59:01;;;;;;;11.63;7.18;;;;;20.90;101536.00;;;;10480846;28;20193;-79
2021/07/08 06:04:03;;;;;;;10.70;6.78;;;;;21.20;101539.00;;;;10504901;28;20205;-78
2021/07/08 06:09:05;;;;;;;11.65;6.53;;;;;21.30;101522.00;;;;10515473;28;20259;-78
2021/07/08 06:14:07;;;;;;;8.88;5.55;;;;;21.20;101520.00;;;;10448968;28;20295;-79
2021/07/08 06:19:09;;;;;;;8.52;5.80;;;;;21.60;101508.00;;;;10475838;28;20189;-79
2021/07/08 06:24:11;;;;;;;7.15;5.55;;;;;22.50;101517.00;;;;10492707;28;20556;-78
2021/07/08 06:29:13;;;;;;;6.60;4.75;;;;;22.80;101522.00;;;;10478457;28;20217;-79
2021/07/08 06:34:15;;;;;;;8.88;5.60;;;;;23.00;101528.00;;;;10459531;28;20221;-79
2021/07/08 06:39:16;;;;;;;10.38;6.25;;;;;22.50;101529.00;;;;10455149;28;20664;-80
2021/07/08 06:44:18;;;;;;;6.50;5.03;;;;;22.20;101537.00;;;;10454297;28;20213;-79
2021/07/08 06:49:21;;;;;;;8.57;5.53;;;;;22.10;101542.00;;;;10495498;28;20556;-79
2021/07/08 06:54:23;;;;;;;9.82;5.43;;;;;22.50;101540.00;;;;10486227;28;20246;-79
2021/07/08 06:59:25;;;;;;;9.10;4.88;;;;;22.80;101540.00;;;;10477557;28;20197;-78
2021/07/08 07:04:27;;;;;;;7.13;4.97;;;;;22.90;101542.00;;;;10481888;28;20201;-80
2021/07/08 07:09:28;;;;;;;9.77;4.72;;;;;22.50;101528.00;;;;10452117;28;20217;-79
2021/07/08 07:14:30;;;;;;;6.78;3.83;;;;;22.10;101530.00;;;;10502503;28;20197;-78
2021/07/08 07:19:32;;;;;;;8.15;4.07;;;;;22.40;101536.00;;;;10494068;28;20189;-79
2021/07/08 07:24:34;;;;;;;6.32;3.63;;;;;22.60;101523.00;;;;10478965;28;20859;-78
2021/07/08 07:29:37;;;;;;;6.38;3.92;;;;;23.20;101529.00;;;;10486120;28;20236;-79
2021/07/08 07:34:39;;;;;;;6.72;3.38;;;;;23.60;101530.00;;;;10479269;28;20239;-78
2021/07/08 07:39:41;;;;;;;6.70;4.00;;;;;23.90;101523.00;;;;10462620;28;20205;-78
2021/07/08 07:44:47;;;;;;;5.95;3.53;;;;;23.70;101512.00;;;;10503393;28;20242;-78
2021/07/08 07:49:49;;;;;;;7.35;3.55;;;;;24.10;101508.00;;;;10496315;28;20208;-79
2021/07/08 07:54:51;;;;;;;7.43;3.80;;;;;24.80;101514.00;;;;10506481;28;20242;-79
2021/07/08 07:59:53;;;;;;;5.95;3.95;;;;;24.80;101528.00;;;;10522022;28;20206;-79
2021/07/08 08:10:06;;;;;;;5.57;3.15;;;;;24.90;101527.00;;;;10487209;28;20209;-79
2021/07/08 08:15:10;;;;;;;7.22;2.92;;;;;25.10;101533.00;;;;10453562;28;20262;-79
2021/07/08 08:20:13;;;;;;;7.18;4.45;;;;;25.10;101529.00;;;;10485806;28;20552;-79
2021/07/08 08:25:15;;;;;;;6.93;3.92;;;;;25.10;101538.00;;;;10510900;28;20205;-79
2021/07/08 08:30:17;;;;;;;8.70;4.03;;;;;25.50;101529.00;;;;10459415;28;20239;-79
2021/07/08 08:35:19;;;;;;;9.88;4.82;;;;;27.10;101539.00;;;;10483452;28;20879;-78
2021/07/08 08:40:22;;;;;;;9.35;4.95;;;;;28.30;101543.00;;;;10513595;28;20201;-78
2021/07/08 08:45:24;;;;;;;7.57;4.78;;;;;27.90;101540.00;;;;10482185;28;20220;-79
2021/07/08 08:50:26;;;;;;;8.65;4.63;;;;;28.20;101547.00;;;;10498269;28;20619;-78
2021/07/08 08:55:29;;;;;;;7.97;5.15;;;;;28.70;101544.00;;;;10501002;28;20198;-78
2021/07/08 09:00:30;;;;;;;9.85;5.22;;;;;28.90;101554.00;;;;10473485;28;20201;-78
2021/07/08 09:05:33;;;;;;;6.30;5.20;;;;;27.90;101559.00;;;;10500247;28;20202;-78
2021/07/08 09:10:36;;;;;;;8.75;4.88;;;;;27.00;101555.00;;;;10505669;28;20212;-78
2021/07/08 09:15:38;;;;;;;7.65;5.50;;;;;28.30;101568.00;;;;10532352;28;20196;-79
2021/07/08 09:20:40;;;;;;;8.70;5.22;;;;;29.00;101583.00;;;;10490955;28;20206;-79
2021/07/08 09:25:43;;;;;;;6.25;4.03;;;;;29.40;101596.00;;;;10483190;28;20605;-79
2021/07/08 09:30:55;;;;;;;10.88;4.53;;;;;28.40;101591.00;;;;10505403;28;20201;-79
2021/07/08 09:36:12;;;;;;;5.40;3.83;;;;;29.30;101563.00;;;;10494276;28;20319;-79
2021/07/08 09:41:27;;;;;;;10.38;3.65;;;;;29.70;101570.00;;;;10488201;28;20235;-79
2021/07/08 09:46:36;;;;;;;6.05;3.97;;;;;29.60;101571.00;;;;10486676;28;20211;-79
2021/07/08 09:51:41;;;;;;;8.38;4.90;;;;;29.80;101561.00;;;;10496873;28;20281;-80
2021/07/08 09:56:56;;;;;;;5.72;3.92;;;;;29.90;101579.00;;;;10476073;28;20205;-79
2021/07/08 10:01:59;;;;;;;10.88;3.70;;;;;29.10;101593.00;;;;10504275;28;20648;-79
2021/07/08 10:07:02;;;;;;;5.05;2.88;;;;;27.50;101586.00;;;;10504665;28;20231;-79
2021/07/08 10:12:04;;;;;;;7.70;4.10;;;;;26.70;101573.00;;;;10480563;28;20286;-79
2021/07/08 10:17:07;;;;;;;3.60;2.20;;;;;26.40;101555.00;;;;10481700;28;20205;-79
2021/07/08 10:22:10;;;;;;;10.45;3.30;;;;;27.20;101547.00;;;;10464924;28;20552;-79
2021/07/08 10:27:13;;;;;;;4.72;2.90;;;;;29.00;101544.00;;;;10500811;28;20587;-80
2021/07/08 10:32:17;;;;;;;4.22;2.60;;;;;30.80;101552.00;;;;10491376;28;20225;-80
2021/07/08 10:37:24;;;;;;;5.00;2.40;;;;;29.90;101561.00;;;;10526992;28;20193;-80
2021/07/08 10:42:49;;;;;;;6.28;2.80;;;;;28.90;101562.00;;;;10503829;28;20209;-79
2021/07/08 10:47:52;;;;;;;3.30;2.05;;;;;28.10;101556.00;;;;10482210;28;20209;-79
2021/07/08 10:52:55;;;;;;;4.65;2.30;;;;;27.40;101541.00;;;;10495851;28;20242;-79
2021/07/08 10:57:57;;;;;;;3.53;2.30;;;;;27.00;101537.00;;;;10513059;28;20247;-78
2021/07/08 11:03:00;;;;;;;6.28;2.78;;;;;26.30;101543.00;;;;10469951;28;20212;-79
2021/07/08 11:08:03;;;;;;;10.00;2.88;;;;;25.90;101531.00;;;;10514505;28;20224;-79
2021/07/08 11:13:26;;;;;;;4.80;2.90;;;;;27.20;101530.00;;;;10473080;28;20201;-80
2021/07/08 11:18:30;;;;;;;8.07;2.97;;;;;28.90;101524.00;;;;10487438;28;20207;-79
2021/07/08 11:23:42;;;;;;;4.05;3.25;;;;;29.90;101530.00;;;;10495797;28;20219;-80
2021/07/08 11:28:59;;;;;;;4.28;2.55;;;;;30.60;101535.00;;;;10492865;28;20209;-80
2021/07/08 11:34:02;;;;;;;4.05;1.83;;;;;31.10;101532.00;;;;10456206;28;20214;-80
2021/07/08 11:39:04;;;;;;;4.10;2.40;;;;;31.60;101526.00;;;;10452686;28;20193;-80
2021/07/08 11:44:11;;;;;;;5.45;2.05;;;;;31.20;101531.00;;;;10451457;28;20234;-79
2021/07/08 11:49:16;;;;;;;3.08;2.47;;;;;30.50;101533.00;;;;10522479;28;20198;-79
2021/07/08 11:54:17;;;;;;;5.35;1.83;;;;;29.60;101537.00;;;;10481968;28;20196;-79
2021/07/08 11:59:19;;;;;;;4.15;2.08;;;;;29.10;101539.00;;;;10512219;28;20191;-79
2021/07/08 12:04:21;;;;;;;3.47;1.77;;;;;29.00;101547.00;;;;10517921;28;20204;-78
2021/07/08 12:09:26;;;;;;;5.93;3.60;;;;;28.70;101545.00;;;;10523678;28;20251;-78
2021/07/08 12:14:30;;;;;;;4.18;2.60;;;;;28.50;101535.00;;;;10487674;28;20197;-78
2021/07/08 12:19:32;;;;;;;3.58;2.25;;;;;28.80;101530.00;;;;10486423;28;20200;-78
2021/07/08 12:24:36;;;;;;;4.43;2.42;;;;;28.30;101543.00;;;;10506991;28;20562;-79
2021/07/08 12:29:42;;;;;;;5.03;2.58;;;;;27.90;101548.00;;;;10485226;28;20210;-78
2021/07/08 12:34:53;;;;;;;3.53;2.38;;;;;27.80;101536.00;;;;10472850;28;20248;-78
2021/07/08 12:40:01;;;;;;;6.68;3.10;;;;;26.80;101541.00;;;;10471965;28;20243;-79
2021/07/08 12:45:09;;;;;;;6.63;2.90;;;;;26.20;101537.00;;;;10543807;28;20203;-78
2021/07/08 12:50:15;;;;;;;6.90;2.33;;;;;25.50;101533.00;;;;10500012;28;20197;-78
2021/07/08 12:55:36;;;;;;;5.45;2.58;;;;;25.00;101530.00;;;;10496167;28;20305;-78
2021/07/08 13:00:38;;;;;;;3.47;2.72;;;;;24.70;101536.00;;;;10504405;28;20192;-78
2021/07/08 13:05:43;;;;;;;3.28;2.97;;;;;24.60;101537.00;;;;10468291;28;20194;-79
2021/07/08 13:10:49;;;;;;;3.90;2.58;;;;;24.70;101533.00;;;;10486512;28;20213;-78
2021/07/08 13:15:53;;;;;;;4.35;2.67;;;;;24.80;101535.00;;;;10497131;28;20188;-78
2021/07/08 13:20:56;;;;;;;4.93;2.53;;;;;25.10;101520.00;;;;10481594;28;20203;-78
2021/07/08 13:26:08;;;;;;;5.13;2.67;;;;;26.70;101531.00;;;;10494631;28;20197;-78
2021/07/08 13:31:15;;;;;;;4.65;2.78;;;;;29.10;101525.00;;;;10493662;28;20202;-79
2021/07/08 13:36:23;;;;;;;3.13;2.83;;;;;29.50;101527.00;;;;10505460;28;20220;-79
2021/07/08 13:41:27;;;;;;;5.25;2.63;;;;;31.10;101528.00;;;;10480430;28;20262;-79
2021/07/08 13:46:41;;;;;;;4.72;3.03;;;;;31.10;101539.00;;;;10508922;28;20234;-79
2021/07/08 13:51:51;;;;;;;3.20;2.80;;;;;29.40;101525.00;;;;10525257;28;20214;-79
2021/07/08 13:56:54;;;;;;;6.70;2.50;;;;;28.60;101536.00;;;;10506327;28;20189;-79
2021/07/08 14:01:58;;;;;;;4.18;2.83;;;;;28.90;101535.00;;;;10510444;28;20193;-79
2021/07/08 14:07:02;;;;;;;4.93;2.92;;;;;29.10;101533.00;;;;10485027;28;20212;-80
2021/07/08 14:12:04;;;;;;;6.50;2.72;;;;;28.80;101537.00;;;;10495138;28;20216;-79
2021/07/08 14:17:06;;;;;;;6.22;2.97;;;;;28.40;101534.00;;;;10487715;28;20196;-79
2021/07/08 14:22:08;;;;;;;4.53;2.85;;;;;28.00;101529.00;;;;10460753;28;20639;-79
2021/07/08 14:27:11;;;;;;;3.25;2.50;;;;;27.50;101523.00;;;;10515201;28;20199;-78
2021/07/08 14:32:13;;;;;;;3.85;2.38;;;;;26.90;101522.00;;;;10455641;28;20232;-79
2021/07/08 14:37:15;;;;;;;4.05;2.30;;;;;26.30;101522.00;;;;10499771;28;20197;-79
2021/07/08 14:42:39;;;;;;;6.15;3.00;;;;;25.30;101537.00;;;;10461221;28;20214;-78
2021/07/08 14:47:42;;;;;;;3.30;2.55;;;;;24.30;101541.00;;;;10477136;28;20188;-78
2021/07/08 14:52:45;;;;;;;7.40;3.45;;;;;23.10;101545.00;;;;10511669;28;20545;-78
2021/07/08 14:57:47;;;;;;;6.47;3.33;;;;;22.30;101542.00;;;;10491263;28;20197;-78
2021/07/08 15:02:49;;;;;;;5.90;3.92;;;;;21.70;101537.00;;;;10492025;28;20193;-78
2021/07/08 15:07:51;;;;;;;6.22;4.40;;;;;21.40;101553.00;;;;10507941;28;20226;-78
2021/07/08 15:12:57;;;;;;;6.93;4.70;;;;;21.30;101547.00;;;;10465514;28;20214;-78
2021/07/08 15:17:59;;;;;;;11.50;5.95;;;;;21.30;101569.00;;;;10499715;28;20265;-79
2021/07/08 15:23:01;;;;;;;9.23;8.25;;;;;20.90;101563.00;;;;10465757;28;20196;-79
2021/07/08 15:28:03;;;;;;;12.13;8.60;;;;;21.10;101558.00;;;;10503905;28;20230;-79
2021/07/08 15:33:05;;;;;;;13.20;9.68;;;;;21.20;101556.00;;;;10511241;28;20282;-79
2021/07/08 15:38:08;;;;;;;12.32;9.32;;;;;21.30;101563.00;;;;10450308;28;20300;-79
2021/07/08 15:43:11;;;;;;;12.98;9.75;;;;;21.30;101569.00;;;;10504731;28;20209;-78
2021/07/08 15:48:13;;;;;;;12.70;10.02;;;;;21.00;101567.00;;;;10455207;28;20204;-78
2021/07/08 15:53:16;;;;;;;13.13;11.35;;;;;20.90;101563.00;;;;10507234;28;20189;-79
2021/07/08 15:58:18;;;;;;;12.88;10.50;;;;;21.30;101568.00;;;;10472078;28;20197;-80
2021/07/08 16:03:20;;;;;;;16.38;12.43;;;;;21.50;101574.00;;;;10483761;28;20224;-80
2021/07/08 16:08:22;;;;;;;16.13;12.85;;;;;22.20;101566.00;;;;10470659;28;20890;-79
2021/07/08 16:13:23;;;;;;;13.48;11.68;;;;;22.30;101576.00;;;;10481508;28;20193;-78
2021/07/08 16:18:25;;;;;;;14.13;12.70;;;;;22.00;101579.00;;;;10497834;28;20548;-78
2021/07/08 16:23:27;;;;;;;15.75;13.50;;;;;22.40;101569.00;;;;10463254;28;20655;-77
2021/07/08 16:28:29;;;;;;;14.15;11.60;;;;;22.60;101561.00;;;;10517660;28;20648;-78
2021/07/08 16:33:32;;;;;;;15.57;11.57;;;;;22.70;101548.00;;;;10528118;28;20220;-78
2021/07/08 16:38:34;;;;;;;14.25;11.00;;;;;22.60;101560.00;;;;10515780;28;20200;-77
2021/07/08 16:43:36;;;;;;;13.25;10.10;;;;;22.90;101551.00;;;;10496756;28;20651;-78
2021/07/08 16:48:39;;;;;;;10.68;9.43;;;;;23.20;101549.00;;;;10476858;28;20217;-77
2021/07/08 16:53:42;;;;;;;9.45;8.48;;;;;23.60;101551.00;;;;10490155;28;20205;-78
2021/07/08 16:58:47;;;;;;;9.82;8.73;;;;;24.00;101557.00;;;;10487220;28;20262;-78
2021/07/08 17:03:52;;;;;;;8.60;7.80;;;;;24.30;101562.00;;;;10481647;28;20699;-77
2021/07/08 17:08:54;;;;;;;8.98;7.95;;;;;24.40;101563.00;;;;10525861;28;20210;-77
2021/07/08 17:13:56;;;;;;;7.32;6.63;;;;;23.60;101555.00;;;;10484461;28;20196;-77
2021/07/08 17:19:02;;;;;;;7.70;5.97;;;;;23.00;101553.00;;;;10508547;28;20220;-77
2021/07/08 17:24:04;;;;;;;8.63;6.95;;;;;22.70;101564.00;;;;10515331;28;20986;-77
2021/07/08 17:29:06;;;;;;;8.38;6.40;;;;;22.70;101565.00;;;;10513203;28;20310;-77
2021/07/08 17:34:08;;;;;;;8.93;6.50;;;;;22.40;101562.00;;;;10499338;28;20235;-78
2021/07/08 17:39:11;;;;;;;7.72;5.82;;;;;22.50;101568.00;;;;10483723;28;20194;-78
2021/07/08 17:44:13;;;;;;;7.82;5.22;;;;;22.50;101563.00;;;;10473944;28;20204;-78
2021/07/08 17:49:15;;;;;;;7.38;5.30;;;;;22.60;101563.00;;;;10472993;28;20211;-78
2021/07/08 17:54:38;;;;;;;8.05;5.95;;;;;22.70;101558.00;;;;10502721;28;20722;-77
2021/07/08 17:59:40;;;;;;;7.40;5.53;;;;;22.70;101556.00;;;;10508423;28;20709;-78
2021/07/08 18:04:58;;;;;;;7.47;5.30;;;;;22.40;101548.00;;;;10478003;28;20193;-78
2021/07/08 18:10:05;;;;;;;7.70;5.68;;;;;22.10;101556.00;;;;10485105;28;20711;-78
2021/07/08 18:15:14;;;;;;;6.03;5.13;;;;;21.70;101563.00;;;;10486142;28;20215;-78
2021/07/08 18:20:20;;;;;;;7.78;5.90;;;;;21.30;101572.00;;;;10489792;28;20235;-78
2021/07/08 18:25:25;;;;;;;5.93;5.43;;;;;21.00;101569.00;;;;10500602;28;20201;-78
2021/07/08 18:30:29;;;;;;;6.43;5.72;;;;;20.70;101567.00;;;;10492467;28;21175;-78
2021/07/08 18:35:34;;;;;;;7.50;5.45;;;;;20.40;101581.00;;;;10490030;28;20218;-78
2021/07/08 18:40:36;;;;;;;6.80;5.45;;;;;20.10;101585.00;;;;10495959;28;20197;-78
2021/07/08 18:45:38;;;;;;;6.57;5.90;;;;;19.80;101606.00;;;;10510165;28;20206;-78
2021/07/08 18:50:43;;;;;;;7.55;5.15;;;;;19.60;101628.00;;;;10497108;28;20741;-78
2021/07/08 18:55:45;;;;;;;7.78;5.40;;;;;19.30;101649.00;;;;10481357;28;20200;-78
2021/07/08 19:00:47;;;;;;;7.55;6.50;;;;;19.20;101661.00;;;;10486589;28;20188;-78
2021/07/08 19:05:49;;;;;;;7.00;5.50;;;;;19.00;101679.00;;;;10512402;28;20925;-78
2021/07/08 19:10:51;;;;;;;9.18;5.97;;;;;18.90;101688.00;;;;10480137;28;20614;-78
2021/07/08 19:15:53;;;;;;;7.63;6.00;;;;;18.90;101690.00;;;;10490214;28;20209;-79
2021/07/08 19:20:55;;;;;;;9.32;6.53;;;;;19.00;101690.00;;;;10454041;28;20198;-79
2021/07/08 19:25:58;;;;;;;11.20;7.00;;;;;19.00;101703.00;;;;10520640;28;20189;-78
2021/07/08 19:31:00;;;;;;;10.32;7.05;;;;;18.90;101702.00;;;;10481849;28;20214;-78
2021/07/08 19:36:03;;;;;;;10.30;6.40;;;;;18.80;101686.00;;;;10483076;28;20217;-78
2021/07/08 19:41:05;;;;;;;10.77;7.35;;;;;18.60;101682.00;;;;10472114;28;20209;-78
2021/07/08 19:46:07;;;;;;;9.50;8.15;;;;;18.20;101707.00;;;;10471975;28;20675;-78
2021/07/08 19:56:29;;;;;;;10.60;8.55;;;;;17.70;101702.00;;;;10469701;28;20197;-78
2021/07/08 20:01:32;;;;;;;13.15;9.57;;;;;17.60;101696.00;;;;10478663;28;20205;-78
2021/07/08 20:06:34;;;;;;;12.40;9.27;;;;;17.50;101707.00;;;;10511193;28;20205;-78
2021/07/08 20:11:36;;;;;;;12.18;9.82;;;;;17.50;101695.00;;;;10475048;28;20218;-78
2021/07/08 20:16:39;;;;;;;15.07;8.48;;;;;17.60;101698.00;;;;10473350;28;20271;-78
2021/07/08 20:21:41;;;;;;;10.20;8.20;;;;;17.60;101701.00;;;;10482004;28;20283;-78
2021/07/08 20:26:43;;;;;;;11.80;9.43;;;;;17.50;101692.00;;;;10479496;28;20254;-78
2021/07/08 20:31:45;;;;;;;14.93;9.43;;;;;17.30;101696.00;;;;10483261;28;20220;-79
2021/07/08 20:36:47;;;;;;;14.02;9.25;;;;;17.10;101696.00;;;;10461666;28;20207;-79
2021/07/08 20:41:50;;;;;;;12.68;10.43;;;;;17.10;101698.00;;;;10445127;28;20228;-79
2021/07/08 20:46:52;;;;;;;14.77;10.48;;;;;17.10;101698.00;;;;10452363;28;20212;-78
2021/07/08 20:51:55;;;;;;;13.88;11.02;;;;;16.90;101694.00;;;;10500937;28;20205;-78
2021/07/08 20:56:57;;;;;;;14.05;11.05;;;;;16.90;101687.00;;;;10503276;28;20607;-78
2021/07/08 21:01:59;;;;;;;13.77;10.63;;;;;16.90;101683.00;;;;10479766;28;20257;-78
2021/07/08 21:07:02;;;;;;;16.48;11.63;;;;;16.80;101682.00;;;;10493387;28;20233;-78
2021/07/08 21:12:05;;;;;;;13.88;11.70;;;;;16.80;101692.00;;;;10490916;28;20252;-78
2021/07/08 21:17:07;;;;;;;12.38;10.10;;;;;16.80;101686.00;;;;10473339;28;20196;-78
2021/07/08 21:22:09;;;;;;;12.15;10.25;;;;;16.70;101688.00;;;;10500941;28;20223;-78
2021/07/08 21:27:11;;;;;;;17.88;11.55;;;;;16.60;101682.00;;;;10483912;28;20642;-78
2021/07/08 21:32:16;;;;;;;16.52;11.98;;;;;16.60;101692.00;;;;10472437;28;20228;-78
2021/07/08 21:37:18;;;;;;;14.55;11.10;;;;;16.50;101684.00;;;;10483992;28;20197;-78
2021/07/08 21:42:19;;;;;;;15.17;10.90;;;;;16.30;101703.00;;;;10473956;28;20213;-78
2021/07/08 21:47:21;;;;;;;15.27;11.27;;;;;16.20;101687.00;;;;10510794;28;20205;-78
2021/07/08 21:52:24;;;;;;;17.90;12.32;;;;;16.10;101688.00;;;;10528577;28;20296;-79
2021/07/08 21:57:26;;;;;;;17.93;13.30;;;;;16.00;101689.00;;;;10449319;28;20239;-78
2021/07/08 22:02:27;;;;;;;13.40;12.02;;;;;15.90;101698.00;;;;10472857;28;20201;-78
2021/07/08 22:07:29;;;;;;;19.13;13.93;;;;;15.90;101693.00;;;;10449907;28;20213;-78
2021/07/08 22:12:31;;;;;;;21.33;15.10;;;;;15.90;101706.00;;;;10412276;28;20217;-78
2021/07/08 22:17:33;;;;;;;18.13;14.13;;;;;16.00;101694.00;;;;10462745;28;20790;-78
2021/07/08 22:22:36;;;;;;;17.10;12.90;;;;;15.90;101702.00;;;;10435644;28;20206;-77
2021/07/08 22:27:38;;;;;;;20.77;14.60;;;;;15.90;101708.00;;;;10414833;28;20194;-78
2021/07/08 22:32:40;;;;;;;19.23;13.43;;;;;15.90;101709.00;;;;10432521;28;20225;-77
2021/07/08 22:37:42;;;;;;;21.10;14.63;;;;;16.00;101715.00;;;;10470708;28;20237;-77
2021/07/08 22:42:44;;;;;;;20.23;14.07;;;;;16.00;101713.00;;;;10414552;28;20243;-77
2021/07/08 22:47:46;;;;;;;16.30;12.83;;;;;16.10;101728.00;;;;10441910;28;20193;-78
2021/07/08 22:52:48;;;;;;;21.77;14.53;;;;;16.20;101723.00;;;;10454271;28;20210;-78
2021/07/08 22:57:50;;;;;;;23.63;15.67;;;;;16.20;101712.00;;;;10446428;28;20205;-78
2021/07/08 23:02:52;;;;;;;32.55;17.75;;;;;16.40;101719.00;;;;10443273;28;20209;-78
2021/07/08 23:07:53;;;;;;;28.73;17.30;;;;;16.50;101724.00;;;;10457854;28;20259;-78
2021/07/08 23:12:55;;;;;;;18.10;14.30;;;;;16.50;101718.00;;;;10451108;28;20202;-78
2021/07/08 23:18:19;;;;;;;19.30;12.93;;;;;16.50;101722.00;;;;10452080;28;20209;-78
2021/07/08 23:23:21;;;;;;;21.67;12.55;;;;;16.50;101720.00;;;;10435160;28;20199;-78
2021/07/08 23:28:24;;;;;;;19.20;12.67;;;;;16.50;101717.00;;;;10432562;28;20198;-78
2021/07/08 23:33:26;;;;;;;16.00;11.13;;;;;16.40;101714.00;;;;10438109;28;20226;-78
2021/07/08 23:38:28;;;;;;;16.60;10.50;;;;;16.40;101714.00;;;;10455395;28;20229;-78
